createdAt,value
2019-01-16T00:00:20.295Z,0.60
2019-01-16T00:02:53.491Z,0.60
2019-01-16T00:05:29.762Z,0.60
2019-01-16T00:08:05.756Z,0.60
2019-01-16T00:10:39.091Z,0.50
2019-01-16T00:13:12.030Z,0.80
2019-01-16T00:15:48.132Z,0.60
2019-01-16T00:18:30.585Z,0.50
2019-01-16T00:21:00.873Z,1.00
2019-01-16T00:23:31.146Z,0.80
2019-01-16T00:26:04.394Z,0.70
2019-01-16T00:28:34.686Z,0.87
2019-01-16T00:31:04.937Z,1.17
2019-01-16T00:33:35.212Z,0.83
2019-01-16T00:36:08.703Z,1.57
2019-01-16T00:38:51.003Z,1.33
2019-01-16T00:41:33.678Z,1.10
2019-01-16T00:44:07.046Z,0.70
2019-01-16T00:46:43.583Z,0.90
2019-01-16T00:49:20.153Z,0.80
2019-01-16T00:51:53.648Z,0.60
2019-01-16T00:54:26.644Z,0.60
2019-01-16T00:57:02.698Z,0.70
2019-01-16T00:59:49.423Z,0.60
2019-01-16T01:02:35.886Z,0.50
2019-01-16T01:05:17.359Z,0.40
2019-01-16T01:07:50.472Z,0.50
2019-01-16T01:10:20.745Z,0.40
2019-01-16T01:12:50.995Z,0.40
2019-01-16T01:15:27.528Z,0.40
2019-01-16T01:17:57.793Z,0.33
2019-01-16T01:20:44.274Z,0.33
2019-01-16T01:23:29.712Z,0.37
2019-01-16T01:26:08.914Z,0.30
2019-01-16T01:28:44.966Z,0.40
2019-01-16T01:31:30.695Z,0.30
2019-01-16T01:34:13.078Z,0.40
2019-01-16T01:36:43.449Z,0.40
2019-01-16T01:39:16.477Z,0.30
2019-01-16T01:41:46.744Z,0.40
2019-01-16T01:44:17.021Z,0.30
2019-01-16T01:46:50.149Z,0.30
2019-01-16T01:49:26.631Z,0.30
2019-01-16T01:51:56.893Z,0.30
2019-01-16T01:54:33.208Z,0.30
2019-01-16T01:57:19.740Z,0.30
2019-01-16T01:59:53.089Z,0.30
2019-01-16T02:02:23.350Z,0.30
2019-01-16T02:05:02.415Z,0.30
2019-01-16T02:07:47.744Z,0.30
2019-01-16T02:10:26.892Z,0.30
2019-01-16T02:13:09.248Z,0.20
2019-01-16T02:15:55.939Z,0.30
2019-01-16T02:18:28.883Z,0.30
2019-01-16T02:21:15.776Z,0.33
2019-01-16T02:23:55.150Z,0.30
2019-01-16T02:26:41.821Z,0.30
2019-01-16T02:29:24.080Z,0.40
2019-01-16T02:32:09.331Z,0.30
2019-01-16T02:34:39.577Z,0.20
2019-01-16T02:37:26.345Z,0.20
2019-01-16T02:40:12.914Z,0.30
2019-01-16T02:42:49.478Z,0.20
2019-01-16T02:45:22.685Z,0.30
2019-01-16T02:47:59.531Z,0.20
2019-01-16T02:50:39.012Z,0.20
2019-01-16T02:53:09.343Z,0.20
2019-01-16T02:55:57.527Z,0.20
2019-01-16T02:58:30.904Z,0.20
2019-01-16T03:01:04.340Z,0.20
2019-01-16T03:03:40.932Z,0.20
2019-01-16T03:06:13.633Z,0.20
2019-01-16T03:08:43.884Z,0.30
2019-01-16T03:11:20.240Z,0.30
2019-01-16T03:14:06.764Z,0.30
2019-01-16T03:16:43.283Z,0.30
2019-01-16T03:19:16.387Z,0.30
2019-01-16T03:21:52.746Z,0.30
2019-01-16T03:24:29.141Z,0.40
2019-01-16T03:26:59.584Z,0.30
2019-01-16T03:29:35.888Z,0.40
2019-01-16T03:32:06.324Z,0.50
2019-01-16T03:34:45.637Z,0.60
2019-01-16T03:37:32.152Z,0.60
2019-01-16T03:40:05.392Z,0.60
2019-01-16T03:42:35.663Z,0.80
2019-01-16T03:45:07.421Z,0.80
2019-01-16T03:47:46.793Z,0.70
2019-01-16T03:50:33.529Z,1.23
2019-01-16T03:53:03.818Z,1.00
2019-01-16T03:55:50.538Z,0.80
2019-01-16T03:58:20.814Z,0.97
2019-01-16T04:00:53.798Z,1.13
2019-01-16T04:03:26.982Z,0.90
2019-01-16T04:06:03.029Z,0.50
2019-01-16T04:08:51.712Z,0.40
2019-01-16T04:11:27.748Z,0.47
2019-01-16T04:13:58.041Z,0.50
2019-01-16T04:16:34.517Z,0.50
2019-01-16T04:19:07.585Z,0.57
2019-01-16T04:21:37.854Z,0.80
2019-01-16T04:24:08.107Z,1.00
2019-01-16T04:26:47.253Z,1.20
2019-01-16T04:29:26.862Z,0.80
2019-01-16T04:32:15.427Z,1.20
2019-01-16T04:35:01.001Z,1.60
2019-01-16T04:37:46.749Z,1.23
2019-01-16T04:40:33.257Z,1.43
2019-01-16T04:43:09.840Z,1.70
2019-01-16T04:45:40.103Z,1.70
2019-01-16T04:48:16.117Z,1.67
2019-01-16T04:50:46.390Z,1.73
2019-01-16T04:53:28.468Z,1.07
2019-01-16T04:56:15.255Z,2.03
2019-01-16T04:59:03.533Z,1.80
2019-01-16T05:01:46.101Z,1.47
2019-01-16T05:04:16.375Z,2.23
2019-01-16T05:06:46.635Z,2.20
2019-01-16T05:09:32.192Z,2.33
2019-01-16T05:12:02.466Z,1.80
2019-01-16T05:14:32.724Z,2.30
2019-01-16T05:17:03.047Z,2.50
2019-01-16T05:19:42.408Z,4.57
2019-01-16T05:22:15.654Z,2.80
2019-01-16T05:24:52.131Z,2.73
2019-01-16T05:27:40.703Z,2.20
2019-01-16T05:30:29.778Z,2.80
2019-01-16T05:33:05.820Z,3.00
2019-01-16T05:35:39.167Z,2.73
2019-01-16T05:38:25.908Z,3.30
2019-01-16T05:41:11.236Z,4.30
2019-01-16T05:43:57.587Z,4.07
2019-01-16T05:46:33.984Z,4.07
2019-01-16T05:49:10.304Z,6.00
2019-01-16T05:51:40.578Z,6.43
2019-01-16T05:54:29.447Z,5.20
2019-01-16T05:56:59.926Z,7.07
2019-01-16T05:59:42.538Z,6.27
2019-01-16T06:02:30.957Z,6.83
2019-01-16T06:05:07.294Z,5.50
2019-01-16T06:07:54.029Z,4.90
2019-01-16T06:10:24.371Z,4.17
2019-01-16T06:13:11.219Z,5.40
2019-01-16T06:15:57.765Z,5.50
2019-01-16T06:18:28.032Z,5.20
2019-01-16T06:21:20.403Z,6.97
2019-01-16T06:23:50.667Z,6.00
2019-01-16T06:26:26.650Z,6.27
2019-01-16T06:29:13.103Z,5.13
2019-01-16T06:32:02.806Z,4.23
2019-01-16T06:34:36.075Z,3.53
2019-01-16T06:37:06.476Z,4.67
2019-01-16T06:39:42.784Z,6.90
2019-01-16T06:42:31.249Z,4.47
2019-01-16T06:45:10.481Z,3.80
2019-01-16T06:47:55.779Z,4.47
2019-01-16T06:50:28.903Z,3.57
2019-01-16T06:52:59.166Z,4.27
2019-01-16T06:55:29.412Z,4.57
2019-01-16T06:58:16.153Z,5.57
2019-01-16T07:00:49.113Z,4.20
2019-01-16T07:03:35.863Z,3.60
2019-01-16T07:06:22.320Z,3.63
2019-01-16T07:08:58.961Z,3.83
2019-01-16T07:11:45.749Z,4.30
2019-01-16T07:14:21.805Z,2.47
2019-01-16T07:16:57.840Z,3.70
2019-01-16T07:19:44.668Z,3.43
2019-01-16T07:22:33.267Z,4.03
2019-01-16T07:25:06.624Z,3.27
2019-01-16T07:27:48.948Z,2.77
2019-01-16T07:30:19.336Z,3.40
2019-01-16T07:33:01.661Z,3.50
2019-01-16T07:35:48.218Z,3.90
2019-01-16T07:38:21.174Z,3.93
2019-01-16T07:40:51.418Z,4.80
2019-01-16T07:43:21.701Z,3.87
2019-01-16T07:46:07.000Z,4.80
2019-01-16T07:48:46.315Z,4.17
2019-01-16T07:51:22.562Z,5.70
2019-01-16T07:54:05.119Z,5.23
2019-01-16T07:56:44.373Z,10.03
2019-01-16T07:59:21.879Z,10.43
2019-01-16T08:01:58.193Z,6.80
2019-01-16T08:04:28.697Z,5.00
2019-01-16T08:06:58.951Z,11.60
2019-01-16T08:09:31.908Z,4.67
2019-01-16T08:12:11.271Z,6.20
2019-01-16T08:14:53.956Z,3.93
2019-01-16T08:17:41.252Z,2.57
2019-01-16T08:20:25.100Z,2.33
2019-01-16T08:22:55.847Z,3.70
2019-01-16T08:25:29.069Z,8.90
2019-01-16T08:28:05.392Z,8.40
2019-01-16T08:30:35.675Z,9.90
2019-01-16T08:33:21.095Z,15.43
2019-01-16T08:35:53.927Z,6.10
2019-01-16T08:38:26.950Z,2.43
2019-01-16T08:40:57.244Z,2.97
2019-01-16T08:43:39.790Z,1.30
2019-01-16T08:46:12.988Z,12.17
2019-01-16T08:49:01.871Z,21.53
2019-01-16T08:51:41.034Z,2.67
2019-01-16T08:54:17.251Z,2.55
2019-01-16T08:56:47.542Z,14.40
2019-01-16T08:59:17.789Z,1.20
2019-01-16T09:01:48.311Z,1.97
2019-01-16T09:04:36.719Z,6.20
2019-01-16T09:07:10.200Z,1.00
2019-01-16T09:09:52.706Z,2.03
2019-01-16T09:12:29.045Z,0.50
2019-01-16T09:15:15.918Z,0.70
2019-01-16T09:17:58.201Z,1.00
2019-01-16T09:20:31.177Z,2.90
2019-01-16T09:23:01.443Z,2.80
2019-01-16T09:25:40.901Z,3.20
2019-01-16T09:28:23.266Z,2.70
2019-01-16T09:30:59.614Z,2.57
2019-01-16T09:33:49.094Z,2.42
2019-01-16T09:36:31.626Z,2.25
2019-01-16T09:39:11.114Z,1.50
2019-01-16T09:41:41.417Z,0.70
2019-01-16T09:44:17.441Z,2.12
2019-01-16T09:46:56.889Z,0.70
2019-01-16T09:49:36.202Z,1.85
2019-01-16T09:52:06.810Z,0.60
2019-01-16T09:54:40.072Z,0.30
2019-01-16T09:57:10.341Z,0.90
2019-01-16T09:59:49.574Z,0.60
2019-01-16T10:02:25.837Z,0.47
2019-01-16T10:04:59.212Z,0.30
2019-01-16T10:07:29.471Z,0.30
2019-01-16T10:10:16.427Z,3.00
2019-01-16T10:13:03.136Z,0.50
2019-01-16T10:15:39.305Z,0.40
2019-01-16T10:18:15.363Z,0.33
2019-01-16T10:20:55.870Z,0.50
2019-01-16T10:23:44.644Z,1.03
2019-01-16T10:26:27.278Z,0.50
2019-01-16T10:28:57.541Z,0.30
2019-01-16T10:31:30.747Z,0.60
2019-01-16T10:34:13.064Z,0.53
2019-01-16T10:36:55.816Z,0.50
2019-01-16T10:39:26.120Z,0.50
2019-01-16T10:42:14.744Z,0.88
2019-01-16T10:44:51.101Z,2.33
2019-01-16T10:47:27.434Z,1.02
2019-01-16T10:50:03.610Z,0.47
2019-01-16T10:52:36.795Z,0.57
2019-01-16T10:55:07.543Z,0.50
2019-01-16T10:57:52.866Z,0.50
2019-01-16T11:00:39.319Z,0.50
2019-01-16T11:03:18.541Z,0.50
2019-01-16T11:06:04.174Z,0.50
2019-01-16T11:08:40.446Z,0.30
2019-01-16T11:11:26.057Z,0.50
2019-01-16T11:13:56.382Z,0.70
2019-01-16T11:16:32.784Z,0.50
2019-01-16T11:19:18.118Z,0.40
2019-01-16T11:21:57.233Z,0.50
2019-01-16T11:24:30.263Z,0.47
2019-01-16T11:27:03.370Z,0.30
2019-01-16T11:29:36.829Z,0.45
2019-01-16T11:32:19.115Z,0.40
2019-01-16T11:34:52.755Z,0.40
2019-01-16T11:37:32.045Z,4.25
2019-01-16T11:40:14.273Z,0.40
2019-01-16T11:42:56.713Z,0.37
2019-01-16T11:45:45.803Z,0.45
2019-01-16T11:48:32.281Z,1.57
2019-01-16T11:51:05.355Z,0.40
2019-01-16T11:53:38.428Z,0.40
2019-01-16T11:56:11.998Z,0.65
2019-01-16T11:58:42.262Z,0.70
2019-01-16T12:01:12.528Z,2.08
2019-01-16T12:04:01.152Z,4.60
2019-01-16T12:06:31.409Z,0.40
2019-01-16T12:09:07.496Z,0.47
2019-01-16T12:11:37.721Z,0.50
2019-01-16T12:14:17.108Z,0.50
2019-01-16T12:16:53.212Z,0.40
2019-01-16T12:19:23.514Z,0.30
2019-01-16T12:22:09.964Z,24.50
2019-01-16T12:24:49.151Z,0.72
2019-01-16T12:27:19.444Z,0.30
2019-01-16T12:29:49.693Z,0.40
2019-01-16T12:32:23.109Z,0.70
2019-01-16T12:35:08.673Z,0.65
2019-01-16T12:37:47.821Z,0.40
2019-01-16T12:40:34.237Z,6.25
2019-01-16T12:43:04.527Z,1.40
2019-01-16T12:45:34.795Z,1.60
2019-01-16T12:48:11.209Z,0.78
2019-01-16T12:50:41.469Z,0.60
2019-01-16T12:53:14.610Z,6.15
2019-01-16T12:56:01.430Z,8.88
2019-01-16T12:58:40.618Z,8.25
2019-01-16T13:01:22.768Z,3.02
2019-01-16T13:03:56.105Z,9.10
2019-01-16T13:06:41.747Z,5.83
2019-01-16T13:09:24.068Z,5.45
2019-01-16T13:12:06.873Z,6.45
2019-01-16T13:14:42.898Z,2.25
2019-01-16T13:17:13.191Z,4.40
2019-01-16T13:19:46.377Z,3.47
2019-01-16T13:22:16.645Z,2.53
2019-01-16T13:24:59.245Z,1.72
2019-01-16T13:27:45.985Z,1.60
2019-01-16T13:30:22.403Z,1.25
2019-01-16T13:33:07.938Z,2.77
2019-01-16T13:35:44.361Z,3.98
2019-01-16T13:38:23.827Z,9.08
2019-01-16T13:41:03.218Z,4.05
2019-01-16T13:43:39.438Z,3.67
2019-01-16T13:46:15.555Z,4.83
2019-01-16T13:49:00.804Z,6.50
2019-01-16T13:51:46.117Z,16.10
2019-01-16T13:54:12.095Z,8.33
2019-01-16T13:56:45.778Z,9.33
2019-01-16T13:59:32.283Z,6.83
2019-01-16T14:02:11.640Z,5.83
2019-01-16T14:04:58.094Z,5.13
2019-01-16T14:07:37.408Z,6.37
2019-01-16T14:10:19.272Z,4.40
2019-01-16T14:12:58.528Z,2.75
2019-01-16T14:15:47.287Z,3.25
2019-01-16T14:18:26.701Z,1.65
2019-01-16T14:21:13.352Z,1.67
2019-01-16T14:23:52.971Z,3.02
2019-01-16T14:26:29.474Z,2.75
2019-01-16T14:29:11.906Z,2.67
2019-01-16T14:31:41.069Z,1.98
2019-01-16T14:34:14.223Z,1.92
2019-01-16T14:36:59.500Z,2.43
2019-01-16T14:39:38.789Z,22.03
2019-01-16T14:42:24.163Z,4.80
2019-01-16T14:44:54.478Z,6.30
2019-01-16T14:47:41.048Z,8.00
2019-01-16T14:50:15.515Z,8.80
2019-01-16T14:52:45.883Z,9.37
2019-01-16T14:55:19.221Z,16.40
2019-01-16T14:57:52.476Z,11.53
2019-01-16T15:00:39.316Z,13.67
2019-01-16T15:03:18.682Z,15.53
2019-01-16T15:06:07.114Z,16.48
2019-01-16T15:08:37.420Z,16.47
2019-01-16T15:11:07.687Z,21.27
2019-01-16T15:13:50.296Z,18.23
2019-01-16T15:16:20.575Z,16.60
2019-01-16T15:19:02.874Z,14.93
2019-01-16T15:21:48.428Z,12.90
2019-01-16T15:24:24.748Z,12.20
2019-01-16T15:27:03.857Z,13.67
2019-01-16T15:29:50.598Z,13.93
2019-01-16T15:32:23.893Z,13.77
2019-01-16T15:34:54.178Z,14.10
2019-01-16T15:37:27.348Z,14.07
2019-01-16T15:40:00.594Z,18.50
2019-01-16T15:42:46.020Z,14.90
2019-01-16T15:45:16.303Z,12.80
2019-01-16T15:47:46.570Z,13.37
2019-01-16T15:50:22.987Z,26.63
2019-01-16T15:53:05.357Z,12.33
2019-01-16T15:55:53.698Z,11.07
2019-01-16T15:58:23.954Z,7.93
2019-01-16T16:00:57.342Z,13.50
2019-01-16T16:03:33.803Z,17.10
2019-01-16T16:06:20.399Z,21.77
2019-01-16T16:09:02.930Z,18.80
2019-01-16T16:11:33.187Z,16.77
2019-01-16T16:14:06.219Z,15.60
2019-01-16T16:16:39.384Z,14.30
2019-01-16T16:19:09.645Z,12.50
2019-01-16T16:21:42.951Z,9.23
2019-01-16T16:24:31.411Z,14.80
2019-01-16T16:27:01.731Z,12.33
2019-01-16T16:29:38.145Z,11.40
2019-01-16T16:32:08.448Z,7.87
2019-01-16T16:34:38.740Z,6.10
2019-01-16T16:37:08.996Z,4.53
2019-01-16T16:39:45.118Z,5.40
2019-01-16T16:42:30.177Z,6.10
2019-01-16T16:45:09.514Z,5.73
2019-01-16T16:47:42.473Z,5.27
2019-01-16T16:50:12.933Z,3.37
2019-01-16T16:52:59.955Z,4.13
2019-01-16T16:55:46.680Z,5.23
2019-01-16T16:58:22.683Z,4.07
2019-01-16T17:00:58.680Z,3.87
2019-01-16T17:03:45.206Z,2.27
2019-01-16T17:06:18.232Z,3.13
2019-01-16T17:08:54.641Z,1.80
2019-01-16T17:11:27.870Z,0.60
2019-01-16T17:14:01.070Z,0.90
2019-01-16T17:16:37.377Z,1.00
2019-01-16T17:19:13.739Z,0.97
2019-01-16T17:21:53.021Z,1.13
2019-01-16T17:24:23.317Z,1.50
2019-01-16T17:26:56.614Z,0.77
2019-01-16T17:29:29.768Z,0.70
2019-01-16T17:32:02.769Z,1.37
2019-01-16T17:34:35.758Z,4.43
2019-01-16T17:37:11.794Z,6.70
2019-01-16T17:39:45.130Z,7.27
2019-01-16T17:42:15.390Z,6.00
2019-01-16T17:44:55.176Z,7.97
2019-01-16T17:47:25.432Z,3.87
2019-01-16T17:49:55.690Z,5.63
2019-01-16T17:52:28.698Z,7.47
2019-01-16T17:55:01.899Z,7.70
2019-01-16T17:57:48.651Z,7.70
2019-01-16T18:00:21.448Z,6.13
2019-01-16T18:02:54.706Z,5.10
2019-01-16T18:05:31.081Z,5.60
2019-01-16T18:08:01.378Z,6.53
2019-01-16T18:10:43.638Z,7.00
2019-01-16T18:13:17.036Z,8.67
2019-01-16T18:15:53.247Z,6.17
2019-01-16T18:18:26.394Z,5.83
2019-01-16T18:21:14.528Z,5.10
2019-01-16T18:23:44.839Z,4.63
2019-01-16T18:26:18.182Z,5.93
2019-01-16T18:28:54.458Z,7.30
2019-01-16T18:31:36.818Z,8.10
2019-01-16T18:34:07.118Z,2.00
2019-01-16T18:36:53.953Z,1.70
2019-01-16T18:39:24.239Z,0.40
2019-01-16T18:42:10.770Z,0.80
2019-01-16T18:44:56.633Z,0.83
2019-01-16T18:47:29.819Z,0.80
2019-01-16T18:50:08.896Z,0.50
2019-01-16T18:52:54.210Z,3.33
2019-01-16T18:55:27.633Z,4.93
2019-01-16T18:58:00.969Z,6.73
2019-01-16T19:00:31.218Z,6.20
2019-01-16T19:03:04.267Z,3.33
2019-01-16T19:05:40.637Z,3.80
2019-01-16T19:08:27.516Z,2.60
2019-01-16T19:11:00.523Z,1.70
2019-01-16T19:13:49.404Z,1.13
2019-01-16T19:16:25.669Z,4.77
2019-01-16T19:18:55.978Z,7.97
2019-01-16T19:21:35.562Z,8.10
2019-01-16T19:24:05.857Z,6.70
2019-01-16T19:26:39.104Z,3.50
2019-01-16T19:29:18.640Z,4.80
2019-01-16T19:32:05.488Z,5.33
2019-01-16T19:34:38.456Z,4.47
2019-01-16T19:37:12.220Z,5.30
2019-01-16T19:39:45.509Z,5.63
2019-01-16T19:42:32.363Z,5.83
2019-01-16T19:45:05.642Z,6.00
2019-01-16T19:47:35.907Z,6.47
2019-01-16T19:50:24.230Z,7.40
2019-01-16T19:52:54.480Z,8.10
2019-01-16T19:55:30.532Z,8.70
2019-01-16T19:58:00.799Z,8.27
2019-01-16T20:00:43.304Z,8.17
2019-01-16T20:03:25.577Z,7.77
2019-01-16T20:06:04.825Z,6.47
2019-01-16T20:08:35.096Z,5.80
2019-01-16T20:11:08.327Z,9.57
2019-01-16T20:13:50.931Z,11.07
2019-01-16T20:16:27.104Z,7.57
2019-01-16T20:19:03.557Z,7.20
2019-01-16T20:24:20.553Z,6.30
2019-01-16T20:26:56.821Z,5.13
2019-01-16T20:29:42.211Z,3.07
2019-01-16T20:32:24.283Z,2.80
2019-01-16T20:34:57.612Z,3.50
2019-01-16T20:37:42.890Z,9.83
2019-01-16T20:40:19.972Z,15.03
2019-01-16T20:42:50.246Z,13.63
2019-01-16T20:45:20.517Z,16.77
2019-01-16T20:47:59.799Z,16.90
2019-01-16T20:50:46.630Z,16.10
2019-01-16T20:53:17.629Z,15.33
2019-01-16T20:55:57.081Z,16.27
2019-01-16T20:58:39.412Z,16.07
2019-01-16T21:01:09.679Z,17.83
2019-01-16T21:03:56.273Z,18.60
2019-01-16T21:06:26.544Z,18.03
2019-01-16T21:08:56.815Z,17.67
2019-01-16T21:11:27.144Z,16.13
2019-01-16T21:14:00.042Z,18.60
2019-01-16T21:16:36.375Z,19.33
2019-01-16T21:19:16.236Z,19.87
2019-01-16T21:21:55.695Z,18.67
2019-01-16T21:24:25.971Z,19.47
2019-01-16T21:26:59.435Z,18.33
2019-01-16T21:29:47.911Z,17.33
2019-01-16T21:32:20.894Z,18.17
2019-01-16T21:34:51.156Z,19.97
2019-01-16T21:37:30.527Z,19.33
2019-01-16T21:40:17.300Z,18.77
2019-01-16T21:42:53.555Z,17.63
2019-01-16T21:45:29.963Z,18.00
2019-01-16T21:48:16.955Z,19.30
2019-01-16T21:50:52.970Z,15.90
2019-01-16T21:53:32.379Z,16.37
2019-01-16T21:56:14.948Z,16.37
2019-01-16T21:58:45.485Z,16.27
2019-01-16T22:01:31.120Z,17.10
2019-01-16T22:04:10.257Z,16.73
2019-01-16T22:06:40.562Z,16.30
2019-01-16T22:09:15.191Z,21.45
2019-01-16T22:11:43.097Z,19.07
2019-01-16T22:14:25.417Z,21.30
2019-01-16T22:16:58.906Z,18.33
2019-01-16T22:19:29.190Z,19.07
2019-01-16T22:21:59.447Z,17.47
2019-01-16T22:24:35.776Z,21.40
2019-01-16T22:27:13.224Z,19.43
2019-01-16T22:29:43.533Z,17.47
2019-01-16T22:32:31.927Z,18.57
2019-01-16T22:35:02.512Z,16.33
2019-01-16T22:37:35.593Z,14.23
2019-01-16T22:40:07.764Z,13.23
2019-01-16T22:42:54.167Z,14.50
2019-01-16T22:45:39.573Z,14.67
2019-01-16T22:48:29.284Z,13.90
2019-01-16T22:51:02.605Z,13.90
2019-01-16T22:53:55.507Z,14.50
2019-01-16T22:56:37.769Z,15.37
2019-01-16T22:59:20.178Z,16.73
2019-01-16T23:01:50.718Z,15.37
2019-01-16T23:04:24.120Z,17.00
2019-01-16T23:07:00.977Z,16.43
2019-01-16T23:09:43.376Z,15.67
2019-01-16T23:12:16.454Z,16.97
2019-01-16T23:14:49.821Z,20.73
2019-01-16T23:17:26.495Z,19.70
2019-01-16T23:20:09.170Z,19.33
2019-01-16T23:22:39.478Z,15.80
2019-01-16T23:25:12.535Z,43.07
2019-01-16T23:27:43.004Z,49.40
2019-01-16T23:30:16.259Z,20.90
2019-01-16T23:32:58.315Z,15.13
2019-01-16T23:35:44.804Z,24.03
2019-01-16T23:38:15.080Z,15.53
2019-01-16T23:40:48.294Z,16.93
2019-01-16T23:43:30.753Z,17.40
2019-01-16T23:46:19.529Z,16.10
2019-01-16T23:48:55.974Z,16.53
2019-01-16T23:51:42.818Z,16.70
2019-01-16T23:54:18.874Z,15.70
2019-01-16T23:56:54.881Z,16.90
2019-01-16T23:59:31.191Z,15.57
